createdAt,value
2022-09-15T00:00:31.952Z,17.9
2022-09-15T00:01:32.282Z,17.9
2022-09-15T00:02:32.817Z,17.9
2022-09-15T00:03:33.246Z,17.9
2022-09-15T00:04:33.398Z,17.9
2022-09-15T00:05:33.582Z,17.9
2022-09-15T00:06:33.708Z,17.9
2022-09-15T00:07:33.833Z,17.9
2022-09-15T00:08:33.970Z,17.9
2022-09-15T00:09:34.078Z,17.9
2022-09-15T00:10:34.194Z,17.4
2022-09-15T00:11:34.349Z,17.4
2022-09-15T00:12:34.471Z,17.4
2022-09-15T00:13:34.625Z,17.4
2022-09-15T00:14:34.745Z,17.4
2022-09-15T00:15:34.863Z,17.4
2022-09-15T00:16:35.157Z,17.4
2022-09-15T00:17:35.448Z,17.4
2022-09-15T00:18:35.582Z,17.4
2022-09-15T00:19:35.704Z,17.4
2022-09-15T00:20:35.821Z,17
2022-09-15T00:21:35.933Z,17
2022-09-15T00:22:36.048Z,17
2022-09-15T00:23:36.166Z,17
2022-09-15T00:24:36.281Z,17
2022-09-15T00:25:36.405Z,17
2022-09-15T00:26:36.527Z,17
2022-09-15T00:27:36.646Z,17
2022-09-15T00:28:36.773Z,17
2022-09-15T00:29:36.886Z,17
2022-09-15T00:30:37.145Z,16.7
2022-09-15T00:31:37.326Z,16.7
2022-09-15T00:32:37.437Z,16.7
2022-09-15T00:33:37.559Z,16.7
2022-09-15T00:34:37.685Z,16.7
2022-09-15T00:35:37.794Z,16.7
2022-09-15T00:36:37.923Z,16.7
2022-09-15T00:37:38.048Z,16.7
2022-09-15T00:38:38.189Z,16.7
2022-09-15T00:39:38.329Z,16.7
2022-09-15T00:40:38.469Z,16.4
2022-09-15T00:41:38.657Z,16.4
2022-09-15T00:42:38.814Z,16.4
2022-09-15T00:43:38.970Z,16.4
2022-09-15T00:44:39.124Z,16.4
2022-09-15T00:45:39.372Z,16.4
2022-09-15T00:46:39.723Z,16.4
2022-09-15T00:47:39.833Z,16.4
2022-09-15T00:48:39.944Z,16.4
2022-09-15T00:49:40.072Z,16.4
2022-09-15T00:50:40.217Z,16.2
2022-09-15T00:51:40.374Z,16.2
2022-09-15T00:52:40.505Z,16.2
2022-09-15T00:53:40.714Z,16.2
2022-09-15T00:54:40.904Z,16.2
2022-09-15T00:55:41.053Z,16.2
2022-09-15T00:56:41.209Z,16.2
2022-09-15T00:57:41.344Z,16.2
2022-09-15T00:58:41.465Z,16.2
2022-09-15T00:59:41.584Z,16.2
2022-09-15T01:00:41.703Z,16
2022-09-15T01:01:42.264Z,16
2022-09-15T01:02:42.766Z,16
2022-09-15T01:03:43.008Z,16
2022-09-15T01:04:43.166Z,16
2022-09-15T01:05:43.321Z,16
2022-09-15T01:06:43.477Z,16
2022-09-15T01:07:43.627Z,16
2022-09-15T01:08:43.743Z,16
2022-09-15T01:09:43.968Z,16
2022-09-15T01:10:44.093Z,15.9
2022-09-15T01:11:44.205Z,15.9
2022-09-15T01:12:44.320Z,15.9
2022-09-15T01:13:44.438Z,15.9
2022-09-15T01:14:44.564Z,15.9
2022-09-15T01:15:44.681Z,15.9
2022-09-15T01:16:44.878Z,15.9
2022-09-15T01:17:45.125Z,15.9
2022-09-15T01:18:45.241Z,15.9
2022-09-15T01:19:45.356Z,15.9
2022-09-15T01:20:45.469Z,15.7
2022-09-15T01:21:45.581Z,15.7
2022-09-15T01:22:45.694Z,15.7
2022-09-15T01:23:45.806Z,15.7
2022-09-15T01:24:45.932Z,15.7
2022-09-15T01:25:46.057Z,15.7
2022-09-15T01:26:46.175Z,15.7
2022-09-15T01:27:46.293Z,15.7
2022-09-15T01:28:46.399Z,15.7
2022-09-15T01:29:46.512Z,15.7
2022-09-15T01:30:46.632Z,15.6
2022-09-15T01:31:46.882Z,15.6
2022-09-15T01:32:47.225Z,15.6
2022-09-15T01:33:47.521Z,15.6
2022-09-15T01:34:47.641Z,15.6
2022-09-15T01:35:47.758Z,15.6
2022-09-15T01:36:47.876Z,15.6
2022-09-15T01:37:47.991Z,15.6
2022-09-15T01:38:48.113Z,15.6
2022-09-15T01:39:48.332Z,15.6
2022-09-15T01:40:48.530Z,15.6
2022-09-15T01:41:48.645Z,15.6
2022-09-15T01:42:48.760Z,15.6
2022-09-15T01:43:48.876Z,15.6
2022-09-15T01:44:48.989Z,15.6
2022-09-15T01:45:49.247Z,15.6
2022-09-15T01:46:49.458Z,15.6
2022-09-15T01:47:49.582Z,15.6
2022-09-15T01:48:49.697Z,15.6
2022-09-15T01:49:49.800Z,15.6
2022-09-15T01:50:49.915Z,15.7
2022-09-15T01:51:50.033Z,15.7
2022-09-15T01:52:50.146Z,15.7
2022-09-15T01:53:50.425Z,15.7
2022-09-15T01:54:50.702Z,15.7
2022-09-15T01:55:50.817Z,15.7
2022-09-15T01:56:50.936Z,15.7
2022-09-15T01:57:51.049Z,15.7
2022-09-15T01:58:51.166Z,15.7
2022-09-15T01:59:51.285Z,15.7
2022-09-15T02:00:51.498Z,15.8
2022-09-15T02:01:52.036Z,15.8
2022-09-15T02:02:52.327Z,15.8
2022-09-15T02:03:52.441Z,15.8
2022-09-15T02:04:52.556Z,15.8
2022-09-15T02:05:52.672Z,15.8
2022-09-15T02:06:52.781Z,15.8
2022-09-15T02:07:52.896Z,15.8
2022-09-15T02:08:53.035Z,15.8
2022-09-15T02:09:53.155Z,15.8
2022-09-15T02:10:53.273Z,15.9
2022-09-15T02:11:53.390Z,15.9
2022-09-15T02:12:53.492Z,15.9
2022-09-15T02:13:53.602Z,15.9
2022-09-15T02:14:53.713Z,15.9
2022-09-15T02:15:53.823Z,15.9
2022-09-15T02:16:54.217Z,15.9
2022-09-15T02:17:54.517Z,15.9
2022-09-15T02:18:54.637Z,15.9
2022-09-15T02:19:54.753Z,15.9
2022-09-15T02:20:54.875Z,16
2022-09-15T02:21:54.985Z,16
2022-09-15T02:22:55.105Z,16
2022-09-15T02:23:55.234Z,16
2022-09-15T02:24:55.351Z,16
2022-09-15T02:25:55.467Z,16
2022-09-15T02:26:55.582Z,16
2022-09-15T02:27:55.703Z,16
2022-09-15T02:28:55.816Z,16
2022-09-15T02:29:55.930Z,16
2022-09-15T02:30:56.054Z,16.1
2022-09-15T02:31:56.404Z,16.1
2022-09-15T02:32:56.706Z,16.1
2022-09-15T02:33:56.820Z,16.1
2022-09-15T02:34:56.937Z,16.1
2022-09-15T02:35:57.055Z,16.1
2022-09-15T02:36:57.171Z,16.1
2022-09-15T02:37:57.285Z,16.1
2022-09-15T02:38:57.392Z,16.1
2022-09-15T02:39:57.630Z,16.1
2022-09-15T02:40:57.888Z,16.2
2022-09-15T02:41:58.001Z,16.2
2022-09-15T02:42:58.122Z,16.2
2022-09-15T02:43:58.235Z,16.2
2022-09-15T02:44:58.350Z,16.2
2022-09-15T02:45:58.539Z,16.2
2022-09-15T02:46:58.756Z,16.2
2022-09-15T02:47:58.877Z,16.2
2022-09-15T02:48:58.994Z,16.2
2022-09-15T02:49:59.114Z,16.2
2022-09-15T02:50:59.226Z,16.2
2022-09-15T02:51:59.339Z,16.2
2022-09-15T02:52:59.454Z,16.2
2022-09-15T02:53:59.572Z,16.2
2022-09-15T02:54:59.686Z,16.2
2022-09-15T02:55:59.806Z,16.2
2022-09-15T02:56:59.930Z,16.2
2022-09-15T02:58:00.060Z,16.2
2022-09-15T02:59:00.259Z,16.2
2022-09-15T03:00:00.371Z,16.2
2022-09-15T03:01:00.650Z,16.29
2022-09-15T03:02:00.937Z,16.29
2022-09-15T03:03:01.131Z,16.29
2022-09-15T03:04:01.246Z,16.29
2022-09-15T03:05:01.358Z,16.29
2022-09-15T03:06:01.479Z,16.29
2022-09-15T03:07:01.597Z,16.29
2022-09-15T03:08:01.710Z,16.29
2022-09-15T03:09:01.825Z,16.29
2022-09-15T03:10:01.940Z,16.29
2022-09-15T03:11:02.056Z,16.29
2022-09-15T03:12:02.176Z,16.29
2022-09-15T03:13:02.296Z,16.29
2022-09-15T03:14:02.411Z,16.29
2022-09-15T03:15:02.527Z,16.29
2022-09-15T03:16:02.772Z,16.29
2022-09-15T03:17:02.957Z,16.29
2022-09-15T03:18:03.072Z,16.29
2022-09-15T03:19:03.203Z,16.29
2022-09-15T03:20:03.315Z,16.29
2022-09-15T03:21:03.453Z,16.5
2022-09-15T03:22:03.596Z,16.5
2022-09-15T03:23:03.804Z,16.5
2022-09-15T03:24:03.910Z,16.5
2022-09-15T03:25:04.019Z,16.5
2022-09-15T03:26:04.134Z,16.5
2022-09-15T03:27:04.255Z,16.5
2022-09-15T03:28:04.378Z,16.5
2022-09-15T03:29:04.492Z,16.5
2022-09-15T03:30:04.604Z,16.5
2022-09-15T03:31:04.857Z,16.6
2022-09-15T03:32:05.072Z,16.6
2022-09-15T03:33:05.186Z,16.6
2022-09-15T03:34:05.300Z,16.6
2022-09-15T03:35:05.410Z,16.6
2022-09-15T03:36:05.524Z,16.6
2022-09-15T03:37:05.635Z,16.6
2022-09-15T03:38:05.757Z,16.6
2022-09-15T03:39:05.875Z,16.6
2022-09-15T03:40:06.075Z,16.6
2022-09-15T03:41:06.307Z,16.7
2022-09-15T03:42:06.427Z,16.7
2022-09-15T03:43:06.542Z,16.7
2022-09-15T03:44:06.660Z,16.7
2022-09-15T03:45:06.773Z,16.7
2022-09-15T03:46:07.155Z,16.7
2022-09-15T03:47:07.391Z,16.7
2022-09-15T03:48:07.508Z,16.7
2022-09-15T03:49:07.625Z,16.7
2022-09-15T03:50:07.736Z,16.7
2022-09-15T03:51:07.852Z,16.79
2022-09-15T03:52:07.966Z,16.79
2022-09-15T03:53:08.082Z,16.79
2022-09-15T03:54:08.205Z,16.79
2022-09-15T03:55:08.330Z,16.79
2022-09-15T03:56:08.447Z,16.79
2022-09-15T03:57:08.559Z,16.79
2022-09-15T03:58:08.684Z,16.79
2022-09-15T03:59:08.816Z,16.79
2022-09-15T04:00:08.930Z,16.79
2022-09-15T04:01:09.270Z,16.79
2022-09-15T04:02:09.761Z,16.79
2022-09-15T04:03:09.969Z,16.79
2022-09-15T04:04:10.091Z,16.79
2022-09-15T04:05:10.210Z,16.79
2022-09-15T04:06:10.326Z,16.79
2022-09-15T04:07:10.442Z,16.79
2022-09-15T04:08:10.556Z,16.79
2022-09-15T04:09:10.667Z,16.79
2022-09-15T04:10:10.777Z,16.79
2022-09-15T04:11:10.895Z,16.9
2022-09-15T04:12:11.011Z,16.9
2022-09-15T04:13:11.132Z,16.9
2022-09-15T04:14:11.248Z,16.9
2022-09-15T04:15:11.364Z,16.9
2022-09-15T04:16:11.674Z,16.9
2022-09-15T04:17:11.932Z,16.9
2022-09-15T04:18:12.055Z,16.9
2022-09-15T04:19:12.170Z,16.9
2022-09-15T04:20:12.284Z,16.9
2022-09-15T04:21:12.400Z,17
2022-09-15T04:22:18.051Z,17
2022-09-15T04:23:18.252Z,17
2022-09-15T04:24:18.369Z,17
2022-09-15T04:25:18.474Z,17
2022-09-15T04:26:18.612Z,17
2022-09-15T04:27:18.728Z,17
2022-09-15T04:28:18.841Z,17
2022-09-15T04:29:18.956Z,17
2022-09-15T04:30:19.063Z,17.1
2022-09-15T04:31:19.326Z,17.1
2022-09-15T04:32:19.530Z,17.1
2022-09-15T04:33:19.641Z,17.1
2022-09-15T04:34:19.758Z,17.1
2022-09-15T04:35:19.865Z,17.1
2022-09-15T04:36:19.977Z,17.1
2022-09-15T04:37:20.099Z,17.1
2022-09-15T04:38:20.204Z,17.1
2022-09-15T04:39:20.321Z,17.1
2022-09-15T04:40:20.633Z,17.1
2022-09-15T04:41:20.935Z,17.1
2022-09-15T04:42:21.051Z,17.1
2022-09-15T04:43:21.161Z,17.1
2022-09-15T04:44:21.275Z,17.1
2022-09-15T04:45:21.383Z,17.1
2022-09-15T04:46:21.658Z,17.1
2022-09-15T04:47:21.924Z,17.1
2022-09-15T04:48:22.050Z,17.1
2022-09-15T04:49:22.163Z,17.1
2022-09-15T04:50:22.273Z,17.2
2022-09-15T04:51:22.388Z,17.2
2022-09-15T04:52:22.535Z,17.2
2022-09-15T04:53:22.648Z,17.2
2022-09-15T04:54:22.762Z,17.2
2022-09-15T04:55:22.875Z,17.2
2022-09-15T04:56:23.010Z,17.2
2022-09-15T04:57:23.119Z,17.2
2022-09-15T04:58:23.227Z,17.2
2022-09-15T04:59:23.341Z,17.2
2022-09-15T05:00:23.460Z,17.2
2022-09-15T05:01:23.757Z,17.2
2022-09-15T05:02:24.264Z,17.2
2022-09-15T05:03:24.464Z,17.2
2022-09-15T05:04:24.579Z,17.2
2022-09-15T05:05:24.701Z,17.2
2022-09-15T05:06:24.826Z,17.2
2022-09-15T05:07:24.937Z,17.2
2022-09-15T05:08:25.050Z,17.2
2022-09-15T05:09:25.164Z,17.2
2022-09-15T05:10:25.286Z,17.29
2022-09-15T05:11:25.404Z,17.29
2022-09-15T05:12:25.519Z,17.29
2022-09-15T05:13:25.632Z,17.29
2022-09-15T05:14:25.745Z,17.29
2022-09-15T05:15:25.872Z,17.29
2022-09-15T05:16:26.153Z,17.29
2022-09-15T05:17:26.991Z,17.29
2022-09-15T05:18:27.127Z,17.29
2022-09-15T05:19:27.240Z,17.29
2022-09-15T05:20:27.358Z,17.29
2022-09-15T05:21:27.475Z,17.29
2022-09-15T05:22:27.587Z,17.29
2022-09-15T05:23:27.700Z,17.29
2022-09-15T05:24:27.812Z,17.29
2022-09-15T05:25:27.925Z,17.29
2022-09-15T05:26:28.039Z,17.29
2022-09-15T05:27:28.161Z,17.29
2022-09-15T05:28:28.270Z,17.29
2022-09-15T05:29:28.385Z,17.29
2022-09-15T05:30:43.717Z,17.29
2022-09-15T05:31:44.990Z,17.29
2022-09-15T05:32:45.190Z,17.29
2022-09-15T05:33:45.307Z,17.29
2022-09-15T05:34:45.424Z,17.29
2022-09-15T05:35:45.537Z,17.29
2022-09-15T05:36:45.651Z,17.29
2022-09-15T05:37:45.756Z,17.29
2022-09-15T05:38:45.868Z,17.29
2022-09-15T05:39:46.103Z,17.29
2022-09-15T05:40:46.275Z,17.29
2022-09-15T05:41:46.386Z,17.29
2022-09-15T05:42:46.506Z,17.29
2022-09-15T05:43:46.620Z,17.29
2022-09-15T05:44:46.737Z,17.29
2022-09-15T05:45:46.851Z,17.29
2022-09-15T05:46:47.096Z,17.29
2022-09-15T05:47:47.262Z,17.29
2022-09-15T05:48:47.394Z,17.29
2022-09-15T05:49:47.515Z,17.29
2022-09-15T05:50:47.631Z,17.2
2022-09-15T05:51:47.741Z,17.2
2022-09-15T05:52:47.861Z,17.2
2022-09-15T05:53:47.973Z,17.2
2022-09-15T05:54:48.087Z,17.2
2022-09-15T05:55:48.201Z,17.2
2022-09-15T05:56:48.319Z,17.2
2022-09-15T05:57:48.434Z,17.2
2022-09-15T05:58:48.561Z,17.2
2022-09-15T05:59:48.705Z,17.2
2022-09-15T06:00:48.857Z,17.2
2022-09-15T06:01:49.104Z,17.2
2022-09-15T06:02:49.438Z,17.2
2022-09-15T06:03:49.642Z,17.2
2022-09-15T06:04:49.761Z,17.2
2022-09-15T06:05:49.874Z,17.2
2022-09-15T06:06:49.994Z,17.2
2022-09-15T06:07:50.108Z,17.2
2022-09-15T06:08:58.269Z,17.2
2022-09-15T06:09:59.616Z,17.2
2022-09-15T06:10:59.731Z,17.2
2022-09-15T06:11:59.842Z,17.2
2022-09-15T06:12:59.966Z,17.2
2022-09-15T06:14:00.105Z,17.2
2022-09-15T06:15:00.239Z,17.2
2022-09-15T06:16:00.491Z,17.2
2022-09-15T06:17:00.673Z,17.2
2022-09-15T06:18:00.784Z,17.2
2022-09-15T06:19:00.911Z,17.2
2022-09-15T06:20:01.041Z,17.2
2022-09-15T06:21:01.152Z,17.2
2022-09-15T06:22:01.265Z,17.2
2022-09-15T06:23:01.376Z,17.2
2022-09-15T06:24:01.494Z,17.2
2022-09-15T06:25:01.624Z,17.2
2022-09-15T06:26:01.739Z,17.2
2022-09-15T06:27:01.853Z,17.2
2022-09-15T06:28:01.971Z,17.2
2022-09-15T06:29:02.093Z,17.2
2022-09-15T06:30:02.219Z,17.2
2022-09-15T06:31:02.340Z,17.2
2022-09-15T06:32:02.752Z,17.2
2022-09-15T06:33:03.134Z,17.2
2022-09-15T06:34:03.246Z,17.2
2022-09-15T06:35:03.358Z,17.2
2022-09-15T06:36:03.471Z,17.2
2022-09-15T06:37:03.588Z,17.2
2022-09-15T06:38:03.703Z,17.2
2022-09-15T06:39:03.815Z,17.2
2022-09-15T06:40:04.110Z,17.2
2022-09-15T06:41:04.407Z,17.2
2022-09-15T06:42:06.018Z,17.2
2022-09-15T06:43:06.151Z,17.2
2022-09-15T06:44:06.267Z,17.2
2022-09-15T06:45:06.380Z,17.2
2022-09-15T06:46:06.574Z,17.2
2022-09-15T06:47:06.739Z,17.2
2022-09-15T06:48:25.225Z,17.2
2022-09-15T06:49:25.524Z,17.2
2022-09-15T06:50:25.648Z,17.29
2022-09-15T06:51:25.763Z,17.29
2022-09-15T06:52:25.875Z,17.29
2022-09-15T06:53:25.987Z,17.29
2022-09-15T06:54:26.115Z,17.29
2022-09-15T06:55:26.242Z,17.29
2022-09-15T06:56:26.360Z,17.29
2022-09-15T06:57:26.483Z,17.29
2022-09-15T06:58:26.608Z,17.29
2022-09-15T06:59:26.738Z,17.29
2022-09-15T07:00:26.850Z,17.5
2022-09-15T07:01:26.960Z,17.5
2022-09-15T07:02:27.365Z,17.5
2022-09-15T07:03:27.918Z,17.5
2022-09-15T07:04:28.261Z,17.5
2022-09-15T07:05:28.380Z,17.5
2022-09-15T07:06:28.490Z,17.5
2022-09-15T07:07:28.607Z,17.5
2022-09-15T07:08:28.720Z,17.5
2022-09-15T07:09:28.831Z,17.5
2022-09-15T07:10:28.943Z,17.79
2022-09-15T07:11:29.064Z,17.79
2022-09-15T07:12:29.187Z,17.79
2022-09-15T07:13:29.357Z,17.79
2022-09-15T07:14:29.474Z,17.79
2022-09-15T07:15:29.599Z,17.79
2022-09-15T07:16:30.059Z,17.79
2022-09-15T07:17:30.377Z,17.79
2022-09-15T07:18:30.486Z,17.79
2022-09-15T07:19:30.603Z,17.79
2022-09-15T07:20:30.722Z,17.9
2022-09-15T07:21:30.841Z,17.9
2022-09-15T07:22:30.954Z,17.9
2022-09-15T07:23:31.072Z,17.9
2022-09-15T07:24:31.193Z,17.9
2022-09-15T07:25:31.309Z,17.9
2022-09-15T07:26:31.429Z,17.9
2022-09-15T07:27:31.551Z,17.9
2022-09-15T07:28:31.701Z,17.9
2022-09-15T07:29:37.768Z,17.9
2022-09-15T07:30:38.084Z,17.9
2022-09-15T07:31:38.457Z,17.9
2022-09-15T07:32:38.781Z,17.9
2022-09-15T07:33:38.912Z,17.9
2022-09-15T07:34:39.025Z,17.9
2022-09-15T07:35:39.145Z,17.9
2022-09-15T07:36:39.256Z,17.9
2022-09-15T07:37:39.370Z,17.9
2022-09-15T07:38:39.488Z,17.9
2022-09-15T07:39:39.604Z,17.9
2022-09-15T07:40:39.719Z,17.79
2022-09-15T07:41:39.834Z,17.79
2022-09-15T07:42:39.942Z,17.79
2022-09-15T07:43:40.063Z,17.79
2022-09-15T07:44:40.191Z,17.79
2022-09-15T07:45:40.406Z,17.79
2022-09-15T07:46:40.614Z,17.79
2022-09-15T07:47:40.730Z,17.79
2022-09-15T07:48:40.842Z,17.79
2022-09-15T07:49:40.954Z,17.79
2022-09-15T07:50:41.071Z,17.5
2022-09-15T07:51:41.187Z,17.5
2022-09-15T07:52:41.310Z,17.5
2022-09-15T07:53:41.416Z,17.5
2022-09-15T07:54:41.532Z,17.5
2022-09-15T07:55:41.654Z,17.5
2022-09-15T07:56:41.768Z,17.5
2022-09-15T07:57:41.881Z,17.5
2022-09-15T07:58:42.003Z,17.5
2022-09-15T07:59:42.193Z,17.5
2022-09-15T08:00:42.392Z,17.29
2022-09-15T08:01:42.685Z,17.29
2022-09-15T08:02:42.902Z,17.29
2022-09-15T08:03:43.022Z,17.29
2022-09-15T08:04:43.142Z,17.29
2022-09-15T08:05:46.157Z,17.29
2022-09-15T08:06:46.459Z,17.29
2022-09-15T08:07:46.588Z,17.29
2022-09-15T08:08:46.740Z,17.29
2022-09-15T08:09:46.862Z,17.29
2022-09-15T08:10:46.973Z,17.1
2022-09-15T08:11:47.095Z,17.1
2022-09-15T08:12:47.211Z,17.1
2022-09-15T08:13:47.333Z,17.1
2022-09-15T08:14:47.451Z,17.1
2022-09-15T08:15:47.670Z,17.1
2022-09-15T08:16:47.886Z,17.1
2022-09-15T08:17:48.004Z,17.1
2022-09-15T08:18:48.132Z,17.1
2022-09-15T08:19:48.250Z,17.1
2022-09-15T08:20:48.364Z,16.9
2022-09-15T08:21:48.479Z,16.9
2022-09-15T08:22:48.595Z,16.9
2022-09-15T08:23:48.713Z,16.9
2022-09-15T08:24:48.824Z,16.9
2022-09-15T08:25:48.936Z,16.9
2022-09-15T08:26:49.056Z,16.9
2022-09-15T08:27:49.173Z,16.9
2022-09-15T08:28:49.283Z,16.9
2022-09-15T08:29:49.430Z,16.9
2022-09-15T08:30:49.718Z,16.7
2022-09-15T08:31:50.141Z,16.7
2022-09-15T08:32:50.417Z,16.7
2022-09-15T08:33:50.543Z,16.7
2022-09-15T08:34:50.657Z,16.7
2022-09-15T08:35:50.774Z,16.7
2022-09-15T08:36:50.887Z,16.7
2022-09-15T08:37:50.998Z,16.7
2022-09-15T08:38:51.114Z,16.7
2022-09-15T08:39:51.368Z,16.7
2022-09-15T08:40:51.541Z,16.6
2022-09-15T08:41:51.654Z,16.6
2022-09-15T08:42:51.770Z,16.6
2022-09-15T08:43:52.205Z,16.6
2022-09-15T08:44:52.461Z,16.6
2022-09-15T08:45:52.574Z,16.6
2022-09-15T08:46:52.833Z,16.6
2022-09-15T08:47:53.055Z,16.6
2022-09-15T08:48:53.314Z,16.6
2022-09-15T08:49:53.489Z,16.6
2022-09-15T08:50:53.602Z,16.7
2022-09-15T08:51:53.725Z,16.7
2022-09-15T08:52:53.836Z,16.7
2022-09-15T08:53:53.955Z,16.7
2022-09-15T08:54:54.075Z,16.7
2022-09-15T08:55:54.192Z,16.7
2022-09-15T08:56:54.314Z,16.7
2022-09-15T08:57:54.479Z,16.7
2022-09-15T08:58:54.597Z,16.7
2022-09-15T08:59:54.715Z,16.7
2022-09-15T09:00:54.841Z,16.9
2022-09-15T09:01:55.040Z,16.9
2022-09-15T09:02:55.423Z,16.9
2022-09-15T09:03:55.629Z,16.9
2022-09-15T09:04:55.738Z,16.9
2022-09-15T09:05:55.851Z,16.9
2022-09-15T09:06:55.967Z,16.9
2022-09-15T09:07:56.090Z,16.9
2022-09-15T09:08:56.221Z,16.9
2022-09-15T09:09:56.338Z,16.9
2022-09-15T09:10:56.451Z,17.1
2022-09-15T09:11:56.565Z,17.1
2022-09-15T09:12:56.688Z,17.1
2022-09-15T09:13:56.801Z,17.1
2022-09-15T09:14:56.919Z,17.1
2022-09-15T09:15:57.195Z,17.1
2022-09-15T09:16:57.523Z,17.1
2022-09-15T09:17:57.638Z,17.1
2022-09-15T09:18:57.752Z,17.1
2022-09-15T09:19:57.865Z,17.1
2022-09-15T09:20:57.973Z,17.29
2022-09-15T09:21:58.085Z,17.29
2022-09-15T09:22:58.201Z,17.29
2022-09-15T09:23:58.315Z,17.29
2022-09-15T09:24:58.427Z,17.29
2022-09-15T09:25:58.550Z,17.29
2022-09-15T09:26:58.670Z,17.29
2022-09-15T09:27:58.784Z,17.29
2022-09-15T09:28:58.903Z,17.29
2022-09-15T09:29:59.031Z,17.29
2022-09-15T09:30:59.263Z,17.29
2022-09-15T09:31:59.471Z,17.29
2022-09-15T09:32:59.584Z,17.29
2022-09-15T09:33:59.699Z,17.29
2022-09-15T09:34:59.813Z,17.29
2022-09-15T09:35:59.934Z,17.29
2022-09-15T09:37:00.070Z,17.29
2022-09-15T09:38:00.198Z,17.29
2022-09-15T09:39:00.331Z,17.29
2022-09-15T09:40:00.622Z,17.29
2022-09-15T09:41:02.888Z,17.1
2022-09-15T09:42:03.046Z,17.1
2022-09-15T09:43:03.163Z,17.1
2022-09-15T09:44:03.300Z,17.1
2022-09-15T09:45:03.453Z,17.1
2022-09-15T09:46:03.685Z,17.1
2022-09-15T09:47:03.885Z,17.1
2022-09-15T09:48:04.009Z,17.1
2022-09-15T09:49:04.130Z,17.1
2022-09-15T09:50:04.287Z,17.1
2022-09-15T09:51:04.650Z,16.9
2022-09-15T09:52:04.818Z,16.9
2022-09-15T09:53:04.933Z,16.9
2022-09-15T09:54:05.059Z,16.9
2022-09-15T09:55:05.177Z,16.9
2022-09-15T09:56:05.288Z,16.9
2022-09-15T09:57:05.400Z,16.9
2022-09-15T09:58:05.513Z,16.9
2022-09-15T09:59:05.626Z,16.9
2022-09-15T10:00:05.739Z,16.9
2022-09-15T10:01:05.973Z,16.7
2022-09-15T10:02:06.214Z,16.7
2022-09-15T10:03:06.338Z,16.7
2022-09-15T10:04:06.452Z,16.7
2022-09-15T10:05:06.721Z,16.7
2022-09-15T10:06:07.023Z,16.7
2022-09-15T10:07:07.146Z,16.7
2022-09-15T10:08:07.273Z,16.7
2022-09-15T10:09:07.386Z,16.7
2022-09-15T10:10:07.499Z,16.7
2022-09-15T10:11:07.608Z,16.7
2022-09-15T10:12:07.861Z,16.7
2022-09-15T10:13:07.975Z,16.7
2022-09-15T10:14:08.087Z,16.7
2022-09-15T10:15:08.200Z,16.7
2022-09-15T10:16:08.311Z,16.7
2022-09-15T10:17:08.422Z,16.7
2022-09-15T10:18:08.534Z,16.7
2022-09-15T10:19:08.648Z,16.7
2022-09-15T10:20:08.773Z,16.7
2022-09-15T10:21:08.890Z,16.6
2022-09-15T10:22:09.011Z,16.6
2022-09-15T10:23:09.133Z,16.6
2022-09-15T10:24:09.261Z,16.6
2022-09-15T10:25:09.387Z,16.6
2022-09-15T10:26:09.505Z,16.6
2022-09-15T10:27:09.631Z,16.6
2022-09-15T10:28:09.754Z,16.6
2022-09-15T10:29:09.873Z,16.6
2022-09-15T10:30:10.007Z,16.6
2022-09-15T10:31:10.127Z,16.6
2022-09-15T10:32:10.348Z,16.6
2022-09-15T10:33:10.517Z,16.6
2022-09-15T10:34:10.636Z,16.6
2022-09-15T10:35:10.747Z,16.6
2022-09-15T10:36:10.857Z,16.6
2022-09-15T10:37:10.974Z,16.6
2022-09-15T10:38:11.095Z,16.6
2022-09-15T10:39:11.212Z,16.6
2022-09-15T10:40:11.469Z,16.6
2022-09-15T10:41:11.756Z,16.7
2022-09-15T10:42:11.867Z,16.7
2022-09-15T10:43:11.983Z,16.7
2022-09-15T10:44:12.098Z,16.7
2022-09-15T10:45:12.215Z,16.7
2022-09-15T10:46:12.542Z,16.7
2022-09-15T10:47:12.822Z,16.7
2022-09-15T10:48:12.940Z,16.7
2022-09-15T10:49:13.058Z,16.7
2022-09-15T10:50:13.178Z,16.7
2022-09-15T10:51:13.294Z,17.2
2022-09-15T10:52:13.415Z,17.2
2022-09-15T10:53:13.527Z,17.2
2022-09-15T10:54:13.641Z,17.2
2022-09-15T10:55:13.762Z,17.2
2022-09-15T10:56:13.875Z,17.2
2022-09-15T10:57:14.046Z,17.2
2022-09-15T10:58:14.264Z,17.2
2022-09-15T10:59:14.478Z,17.2
2022-09-15T11:00:14.849Z,17.2
2022-09-15T11:01:15.300Z,18
2022-09-15T11:02:15.641Z,18
2022-09-15T11:03:15.855Z,18
2022-09-15T11:04:15.971Z,18
2022-09-15T11:05:22.970Z,18
2022-09-15T11:06:23.213Z,18
2022-09-15T11:07:23.327Z,18
2022-09-15T11:08:23.442Z,18
2022-09-15T11:09:23.558Z,18
2022-09-15T11:10:23.675Z,18.6
2022-09-15T11:11:23.804Z,18.6
2022-09-15T11:12:29.333Z,18.6
2022-09-15T11:13:29.758Z,18.6
2022-09-15T11:14:29.870Z,18.6
2022-09-15T11:15:29.985Z,18.6
2022-09-15T11:16:30.201Z,18.6
2022-09-15T11:17:30.400Z,18.6
2022-09-15T11:18:30.515Z,18.6
2022-09-15T11:19:30.630Z,18.6
2022-09-15T11:20:30.743Z,18.5
2022-09-15T11:21:30.859Z,18.5
2022-09-15T11:22:30.973Z,18.5
2022-09-15T11:23:31.098Z,18.5
2022-09-15T11:24:31.215Z,18.5
2022-09-15T11:25:31.327Z,18.5
2022-09-15T11:26:31.435Z,18.5
2022-09-15T11:27:31.551Z,18.5
2022-09-15T11:28:31.684Z,18.5
2022-09-15T11:29:31.797Z,18.5
2022-09-15T11:30:31.906Z,18.1
2022-09-15T11:31:32.335Z,18.1
2022-09-15T11:32:32.620Z,18.1
2022-09-15T11:33:32.737Z,18.1
2022-09-15T11:34:32.853Z,18.1
2022-09-15T11:35:32.977Z,18.1
2022-09-15T11:36:33.091Z,18.1
2022-09-15T11:37:33.204Z,18.1
2022-09-15T11:38:33.327Z,18.1
2022-09-15T11:39:33.444Z,18.1
2022-09-15T11:40:33.657Z,17.7
2022-09-15T11:41:33.875Z,17.7
2022-09-15T11:42:33.990Z,17.7
2022-09-15T11:43:34.102Z,17.7
2022-09-15T11:44:34.266Z,17.7
2022-09-15T11:45:34.378Z,17.7
2022-09-15T11:46:34.691Z,17.7
2022-09-15T11:47:34.897Z,17.7
2022-09-15T11:48:35.013Z,17.7
2022-09-15T11:49:35.140Z,17.7
2022-09-15T11:50:35.258Z,17.6
2022-09-15T11:51:35.379Z,17.6
2022-09-15T11:52:35.492Z,17.6
2022-09-15T11:53:35.606Z,17.6
2022-09-15T11:54:35.735Z,17.6
2022-09-15T11:55:35.850Z,17.6
2022-09-15T11:56:35.969Z,17.6
2022-09-15T11:57:36.080Z,17.6
2022-09-15T11:58:36.196Z,17.6
2022-09-15T11:59:36.319Z,17.6
2022-09-15T12:00:36.433Z,17.6
2022-09-15T12:01:36.719Z,17.6
2022-09-15T12:02:37.024Z,17.6
2022-09-15T12:03:37.227Z,17.6
2022-09-15T12:04:37.371Z,17.6
2022-09-15T12:05:37.489Z,17.6
2022-09-15T12:06:44.906Z,17.6
2022-09-15T12:07:46.311Z,17.6
2022-09-15T12:08:46.431Z,17.6
2022-09-15T12:09:46.542Z,17.6
2022-09-15T12:10:46.683Z,17.4
2022-09-15T12:11:46.802Z,17.4
2022-09-15T12:12:46.919Z,17.4
2022-09-15T12:13:47.036Z,17.4
2022-09-15T12:14:47.151Z,17.4
2022-09-15T12:15:47.352Z,17.4
2022-09-15T12:16:47.537Z,17.4
2022-09-15T12:17:47.647Z,17.4
2022-09-15T12:18:47.862Z,17.4
2022-09-15T12:19:48.003Z,17.4
2022-09-15T12:20:48.121Z,17.1
2022-09-15T12:21:48.243Z,17.1
2022-09-15T12:22:48.351Z,17.1
2022-09-15T12:23:48.462Z,17.1
2022-09-15T12:24:48.579Z,17.1
2022-09-15T12:25:48.694Z,17.1
2022-09-15T12:26:48.809Z,17.1
2022-09-15T12:27:48.923Z,17.1
2022-09-15T12:28:49.042Z,17.1
2022-09-15T12:29:49.160Z,17.1
2022-09-15T12:30:49.271Z,16.79
2022-09-15T12:31:49.388Z,16.79
2022-09-15T12:32:49.514Z,16.79
2022-09-15T12:33:49.626Z,16.79
2022-09-15T12:34:49.739Z,16.79
2022-09-15T12:35:49.856Z,16.79
2022-09-15T12:36:50.058Z,16.79
2022-09-15T12:37:50.265Z,16.79
2022-09-15T12:38:50.376Z,16.79
2022-09-15T12:39:50.571Z,16.79
2022-09-15T12:40:50.788Z,16.6
2022-09-15T12:41:50.906Z,16.6
2022-09-15T12:42:51.036Z,16.6
2022-09-15T12:43:51.148Z,16.6
2022-09-15T12:44:51.269Z,16.6
2022-09-15T12:45:51.415Z,16.6
2022-09-15T12:46:51.703Z,16.6
2022-09-15T12:47:51.941Z,16.6
2022-09-15T12:48:52.052Z,16.6
2022-09-15T12:49:52.167Z,16.6
2022-09-15T12:50:52.279Z,16.9
2022-09-15T12:51:52.397Z,16.9
2022-09-15T12:52:52.512Z,16.9
2022-09-15T12:53:53.056Z,16.9
2022-09-15T12:54:53.303Z,16.9
2022-09-15T12:55:53.423Z,16.9
2022-09-15T12:56:53.536Z,16.9
2022-09-15T12:57:53.649Z,16.9
2022-09-15T12:58:53.762Z,16.9
2022-09-15T12:59:53.872Z,16.9
2022-09-15T13:01:18.458Z,17.7
2022-09-15T13:02:19.880Z,17.7
2022-09-15T13:03:20.371Z,17.7
2022-09-15T13:04:20.566Z,17.7
2022-09-15T13:05:20.680Z,17.7
2022-09-15T13:06:20.806Z,17.7
2022-09-15T13:07:20.932Z,17.7
2022-09-15T13:08:21.052Z,17.7
2022-09-15T13:09:21.176Z,17.7
2022-09-15T13:10:21.289Z,18.4
2022-09-15T13:11:21.407Z,18.4
2022-09-15T13:12:21.519Z,18.4
2022-09-15T13:13:21.635Z,18.4
2022-09-15T13:14:21.746Z,18.4
2022-09-15T13:15:21.857Z,18.4
2022-09-15T13:16:21.983Z,18.4
2022-09-15T13:17:22.098Z,18.4
2022-09-15T13:18:22.215Z,18.4
2022-09-15T13:19:22.327Z,18.4
2022-09-15T13:20:22.446Z,18.9